Time;durP1;ratioP1;P1;durP2;ratioP2;P2;SDS_P1;SDS_P2;PMS_P1;PMS_P2;Temp;Humidity;BMP_temperature;BMP_pressure;BME280_temperature;BME280_humidity;BME280_pressure;Samples;Min_cycle;Max_cycle;Signal;HPM_P1;HPM_P2
2023/10/29 00:01:10;;;;;;;;;;;14.20;75.80;;;;;;5115676;28;19927;-70
2023/10/29 00:03:35;;;;;;;;;;;14.20;75.80;;;;;;5097136;28;19920;-70
2023/10/29 00:06:01;;;;;;;;;;;14.30;75.90;;;;;;5131741;27;20009;-71
2023/10/29 00:08:27;;;;;;;;;;;14.20;75.90;;;;;;5115591;28;19920;-70
2023/10/29 00:10:52;;;;;;;;;;;14.30;75.90;;;;;;5130789;27;19927;-70
2023/10/29 00:13:18;;;;;;;;;;;14.20;75.90;;;;;;5115354;28;19972;-70
2023/10/29 00:15:43;;;;;;;;;;;14.20;75.90;;;;;;5097442;28;20353;-71
2023/10/29 00:18:12;;;;;;;;;;;14.20;75.90;;;;;;5115054;28;20425;-71
2023/10/29 00:20:38;;;;;;;;;;;14.20;75.90;;;;;;5115298;28;19923;-71
2023/10/29 00:23:04;;;;;;;;;;;14.20;75.90;;;;;;5115171;28;19920;-71
2023/10/29 00:25:29;;;;;;;;;;;14.20;76.00;;;;;;5115329;28;20439;-71
2023/10/29 00:27:55;;;;;;;;;;;14.20;76.00;;;;;;5115213;28;19974;-70
2023/10/29 00:30:20;;;;;;;;;;;14.20;76.00;;;;;;5096724;28;19919;-71
2023/10/29 00:32:46;;;;;;;;;;;14.20;76.00;;;;;;5096766;28;19919;-71
2023/10/29 00:35:11;;;;;;;;;;;14.20;76.00;;;;;;5096556;28;19973;-71
2023/10/29 00:37:37;;;;;;;;;;;14.30;76.10;;;;;;5114779;28;19971;-70
2023/10/29 00:40:04;;;;;;;;;;;14.20;76.00;;;;;;5096454;28;20276;-70
2023/10/29 00:42:30;;;;;;;;;;;14.30;76.00;;;;;;5096839;28;20274;-70
2023/10/29 00:44:58;;;;;;;;;;;14.20;76.00;;;;;;5096762;28;20212;-70
2023/10/29 00:47:23;;;;;;;;;;;14.20;76.00;;;;;;5096443;28;19919;-71
2023/10/29 00:49:49;;;;;;;;;;;14.20;76.80;;;;;;5114585;28;20010;-70
2023/10/29 00:52:15;;;;;;;;;;;14.20;76.10;;;;;;5114574;28;19927;-71
2023/10/29 00:54:40;;;;;;;;;;;14.20;76.10;;;;;;5096183;28;19924;-71
2023/10/29 00:57:07;;;;;;;;;;;14.20;76.10;;;;;;5114611;28;19923;-70
2023/10/29 00:59:34;;;;;;;;;;;14.20;76.10;;;;;;5114436;28;20290;-70
2023/10/29 01:01:59;;;;;;;;;;;14.20;76.10;;;;;;5114477;28;19920;-70
2023/10/29 01:04:25;;;;;;;;;;;14.20;76.10;;;;;;5095944;28;19926;-71
2023/10/29 01:06:51;;;;;;;;;;;14.30;76.20;;;;;;5096034;28;19995;-70
2023/10/29 01:09:17;;;;;;;;;;;14.20;76.20;;;;;;5096018;28;19962;-71
2023/10/29 01:11:42;;;;;;;;;;;14.20;76.20;;;;;;5096205;28;20347;-71
2023/10/29 01:14:08;;;;;;;;;;;14.20;76.20;;;;;;5095930;28;20018;-70
2023/10/29 01:16:33;;;;;;;;;;;14.30;76.20;;;;;;5096103;28;19919;-71
2023/10/29 01:18:59;;;;;;;;;;;14.30;76.30;;;;;;5095629;28;19924;-71
2023/10/29 01:21:26;;;;;;;;;;;14.20;76.20;;;;;;5113147;28;19926;-71
2023/10/29 01:23:51;;;;;;;;;;;14.30;76.20;;;;;;5095761;28;20015;-71
2023/10/29 01:26:17;;;;;;;;;;;14.20;76.20;;;;;;5114215;28;20018;-70
2023/10/29 01:28:43;;;;;;;;;;;14.20;77.00;;;;;;5113915;28;20337;-71
2023/10/29 01:31:09;;;;;;;;;;;14.20;76.40;;;;;;5113731;28;20383;-71
2023/10/29 01:33:35;;;;;;;;;;;14.20;76.20;;;;;;5130156;27;19972;-71
2023/10/29 01:36:01;;;;;;;;;;;14.20;76.20;;;;;;5113610;28;20420;-71
2023/10/29 01:38:26;;;;;;;;;;;14.20;76.30;;;;;;5113471;28;20356;-71
2023/10/29 01:40:51;;;;;;;;;;;14.20;76.30;;;;;;5095694;28;20394;-70
2023/10/29 01:43:17;;;;;;;;;;;14.30;76.30;;;;;;5129387;27;20422;-71
2023/10/29 01:45:43;;;;;;;;;;;14.30;76.30;;;;;;5095444;28;19920;-71
2023/10/29 01:48:08;;;;;;;;;;;14.30;76.30;;;;;;5095618;28;19920;-70
2023/10/29 01:50:35;;;;;;;;;;;14.30;76.40;;;;;;5095243;28;20298;-70
2023/10/29 01:53:01;;;;;;;;;;;14.30;76.40;;;;;;5095234;28;19919;-71
2023/10/29 01:55:26;;;;;;;;;;;14.30;76.50;;;;;;5095389;28;20309;-71
2023/10/29 01:57:52;;;;;;;;;;;14.30;76.40;;;;;;5094899;28;20007;-71
2023/10/29 02:00:19;;;;;;;;;;;14.30;76.40;;;;;;5129469;27;19946;-70
2023/10/29 02:02:46;;;;;;;;;;;14.30;76.50;;;;;;5094956;28;19919;-70
2023/10/29 02:05:12;;;;;;;;;;;14.30;76.40;;;;;;5095198;28;19920;-70
2023/10/29 02:07:37;;;;;;;;;;;14.30;76.40;;;;;;5129337;27;19930;-71
2023/10/29 02:10:03;;;;;;;;;;;14.30;76.40;;;;;;5113362;28;19920;-70
2023/10/29 02:12:28;;;;;;;;;;;14.30;76.40;;;;;;5113036;28;19958;-70
2023/10/29 02:14:54;;;;;;;;;;;14.30;76.40;;;;;;5095196;28;19920;-70
2023/10/29 02:17:23;;;;;;;;;;;14.30;76.50;;;;;;5128729;27;20353;-71
2023/10/29 02:19:49;;;;;;;;;;;14.30;76.40;;;;;;5094956;28;19961;-72
2023/10/29 02:22:14;;;;;;;;;;;14.30;76.50;;;;;;5112861;28;20007;-71
2023/10/29 02:24:40;;;;;;;;;;;14.30;76.40;;;;;;5094731;28;19920;-71
2023/10/29 02:27:05;;;;;;;;;;;14.30;76.40;;;;;;5113031;28;19920;-71
2023/10/29 02:29:31;;;;;;;;;;;14.30;76.50;;;;;;5094941;28;20007;-71
2023/10/29 02:31:56;;;;;;;;;;;14.30;76.50;;;;;;5112875;28;19926;-72
2023/10/29 02:34:22;;;;;;;;;;;14.30;76.50;;;;;;5112701;28;19920;-72
2023/10/29 02:36:47;;;;;;;;;;;14.30;76.50;;;;;;5112876;28;19928;-71
2023/10/29 02:39:13;;;;;;;;;;;14.30;76.50;;;;;;5113019;28;20026;-72
2023/10/29 02:41:38;;;;;;;;;;;14.20;76.40;;;;;;5094572;28;19919;-71
2023/10/29 02:44:04;;;;;;;;;;;14.30;76.50;;;;;;5112679;28;19971;-71
2023/10/29 02:46:30;;;;;;;;;;;14.30;76.50;;;;;;5094776;28;20010;-72
2023/10/29 02:48:56;;;;;;;;;;;14.30;76.50;;;;;;5113022;28;19920;-71
2023/10/29 02:51:21;;;;;;;;;;;14.30;76.50;;;;;;5094461;28;19973;-71
2023/10/29 02:53:47;;;;;;;;;;;14.30;76.50;;;;;;5094303;28;19924;-71
2023/10/29 02:56:12;;;;;;;;;;;14.30;76.60;;;;;;5112684;28;20010;-71
2023/10/29 02:58:38;;;;;;;;;;;14.30;76.60;;;;;;5094313;28;20317;-71
2023/10/29 03:01:04;;;;;;;;;;;14.30;76.60;;;;;;5094742;28;19967;-72
2023/10/29 03:03:30;;;;;;;;;;;14.30;76.60;;;;;;5094266;28;20458;-71
2023/10/29 03:05:56;;;;;;;;;;;14.30;76.60;;;;;;5112623;28;19920;-73
2023/10/29 03:08:21;;;;;;;;;;;14.30;76.70;;;;;;5094554;28;19920;-73
2023/10/29 03:10:49;;;;;;;;;;;14.30;76.60;;;;;;5112522;28;19920;-72
2023/10/29 03:13:15;;;;;;;;;;;14.30;76.60;;;;;;5094311;28;19920;-71
2023/10/29 03:15:40;;;;;;;;;;;14.30;76.60;;;;;;5094077;28;20060;-72
2023/10/29 03:18:06;;;;;;;;;;;14.30;76.70;;;;;;5112384;28;20373;-72
2023/10/29 03:20:31;;;;;;;;;;;14.30;76.70;;;;;;5094392;28;20375;-71
2023/10/29 03:22:57;;;;;;;;;;;14.30;76.60;;;;;;5094502;28;19931;-71
2023/10/29 03:25:23;;;;;;;;;;;14.30;76.60;;;;;;5128411;28;19924;-73
2023/10/29 03:27:48;;;;;;;;;;;14.30;76.70;;;;;;5128526;28;19973;-72
2023/10/29 03:30:14;;;;;;;;;;;14.30;76.60;;;;;;5128459;28;19920;-72
2023/10/29 03:32:40;;;;;;;;;;;14.30;76.70;;;;;;5094090;28;19945;-72
2023/10/29 03:35:06;;;;;;;;;;;14.30;76.70;;;;;;5128110;28;19919;-71
2023/10/29 03:37:31;;;;;;;;;;;14.30;76.70;;;;;;5093898;28;19981;-71
2023/10/29 03:39:58;;;;;;;;;;;14.30;76.70;;;;;;5127914;28;20323;-73
2023/10/29 03:42:23;;;;;;;;;;;14.30;76.70;;;;;;5112169;28;19926;-72
2023/10/29 03:44:49;;;;;;;;;;;14.30;77.40;;;;;;5094835;28;19923;-71
2023/10/29 03:47:14;;;;;;;;;;;14.30;76.70;;;;;;5097966;28;19927;-71
2023/10/29 03:49:41;;;;;;;;;;;14.30;76.70;;;;;;5131777;27;19942;-71
2023/10/29 03:52:07;;;;;;;;;;;14.30;76.70;;;;;;5131860;27;19968;-71
2023/10/29 03:54:34;;;;;;;;;;;14.30;76.70;;;;;;5115773;28;20022;-71
2023/10/29 03:56:59;;;;;;;;;;;14.30;76.70;;;;;;5097278;28;19969;-71
2023/10/29 03:59:25;;;;;;;;;;;14.30;76.70;;;;;;5115895;28;20381;-71
2023/10/29 04:01:50;;;;;;;;;;;14.30;76.80;;;;;;5115632;28;20382;-72
2023/10/29 04:04:16;;;;;;;;;;;14.30;76.70;;;;;;5115631;28;19994;-71
2023/10/29 04:06:42;;;;;;;;;;;14.40;76.80;;;;;;5115517;28;19920;-71
2023/10/29 04:09:07;;;;;;;;;;;14.40;76.80;;;;;;5115476;28;19924;-71
2023/10/29 04:11:33;;;;;;;;;;;14.30;76.70;;;;;;5097057;28;19927;-72
2023/10/29 04:13:59;;;;;;;;;;;14.40;76.80;;;;;;5097093;28;20271;-71
2023/10/29 04:16:24;;;;;;;;;;;14.30;76.70;;;;;;5097317;28;19945;-71
2023/10/29 04:18:50;;;;;;;;;;;14.40;76.80;;;;;;5115313;28;19939;-72
2023/10/29 04:21:15;;;;;;;;;;;14.30;76.80;;;;;;5096946;28;19919;-72
2023/10/29 04:23:41;;;;;;;;;;;14.30;76.80;;;;;;5096995;28;19920;-71
2023/10/29 04:26:06;;;;;;;;;;;14.40;76.90;;;;;;5097050;28;19920;-71
2023/10/29 04:28:32;;;;;;;;;;;14.30;76.80;;;;;;5097161;28;19920;-71
2023/10/29 04:30:58;;;;;;;;;;;14.40;76.90;;;;;;5097266;28;20316;-71
2023/10/29 04:33:23;;;;;;;;;;;14.30;76.80;;;;;;5096688;28;19949;-72
2023/10/29 04:35:49;;;;;;;;;;;14.30;76.90;;;;;;5097016;28;19945;-72
2023/10/29 04:38:14;;;;;;;;;;;14.30;76.90;;;;;;5114603;28;19924;-71
2023/10/29 04:40:40;;;;;;;;;;;14.30;76.90;;;;;;5096551;28;19940;-72
2023/10/29 04:43:05;;;;;;;;;;;14.30;76.90;;;;;;5096729;28;19931;-71
2023/10/29 04:45:31;;;;;;;;;;;14.40;76.90;;;;;;5096818;28;19920;-72
2023/10/29 04:47:57;;;;;;;;;;;14.30;76.90;;;;;;5096803;28;19924;-71
2023/10/29 04:50:22;;;;;;;;;;;14.30;76.90;;;;;;5114697;28;20266;-71
2023/10/29 04:52:48;;;;;;;;;;;14.40;76.90;;;;;;5114520;28;19920;-71
2023/10/29 04:55:14;;;;;;;;;;;14.40;76.90;;;;;;5096368;28;19990;-70
2023/10/29 04:57:39;;;;;;;;;;;14.40;76.90;;;;;;5096014;28;19927;-71
2023/10/29 05:00:05;;;;;;;;;;;14.30;76.90;;;;;;5096449;28;20248;-71
2023/10/29 05:02:31;;;;;;;;;;;14.30;76.90;;;;;;5096100;28;20275;-71
2023/10/29 05:04:56;;;;;;;;;;;14.30;76.90;;;;;;5096383;28;19920;-71
2023/10/29 05:07:22;;;;;;;;;;;14.40;77.00;;;;;;5114364;28;20344;-71
2023/10/29 05:09:47;;;;;;;;;;;14.40;77.00;;;;;;5096073;28;19947;-71
2023/10/29 05:12:13;;;;;;;;;;;14.40;76.90;;;;;;5114168;28;19989;-73
2023/10/29 05:14:39;;;;;;;;;;;14.40;76.90;;;;;;5114100;28;20363;-71
2023/10/29 05:17:04;;;;;;;;;;;14.40;76.90;;;;;;5095725;28;20370;-71
2023/10/29 05:19:30;;;;;;;;;;;14.40;76.90;;;;;;5095740;28;19942;-71
2023/10/29 05:21:55;;;;;;;;;;;14.40;76.90;;;;;;5129934;27;19920;-71
2023/10/29 05:24:21;;;;;;;;;;;14.40;76.90;;;;;;5130105;27;20006;-72
2023/10/29 05:26:46;;;;;;;;;;;14.40;77.00;;;;;;5095691;28;20402;-73
2023/10/29 05:29:12;;;;;;;;;;;14.40;76.90;;;;;;5129874;27;19927;-71
2023/10/29 05:31:37;;;;;;;;;;;14.40;76.90;;;;;;5114055;28;19920;-72
2023/10/29 05:34:03;;;;;;;;;;;14.40;76.90;;;;;;5095852;28;19934;-71
2023/10/29 05:36:28;;;;;;;;;;;14.50;77.00;;;;;;5129402;27;20363;-72
2023/10/29 05:38:54;;;;;;;;;;;14.40;76.90;;;;;;5129475;27;19924;-71
2023/10/29 05:41:19;;;;;;;;;;;14.40;76.90;;;;;;5113668;28;19919;-72
2023/10/29 05:43:45;;;;;;;;;;;14.40;76.90;;;;;;5095515;28;19985;-71
2023/10/29 05:46:11;;;;;;;;;;;14.40;76.90;;;;;;5129739;27;19920;-72
2023/10/29 05:48:36;;;;;;;;;;;14.40;76.90;;;;;;5129358;27;19919;-72
2023/10/29 05:51:02;;;;;;;;;;;14.40;76.90;;;;;;5129643;27;20018;-71
2023/10/29 05:53:27;;;;;;;;;;;14.40;76.90;;;;;;5095211;28;19928;-72
2023/10/29 05:55:53;;;;;;;;;;;14.40;76.90;;;;;;5113456;28;19927;-72
2023/10/29 05:58:19;;;;;;;;;;;14.40;76.90;;;;;;5113355;28;19986;-71
2023/10/29 06:00:45;;;;;;;;;;;14.40;76.90;;;;;;5113320;28;19927;-71
2023/10/29 06:03:10;;;;;;;;;;;14.40;76.90;;;;;;5095051;28;20356;-72
2023/10/29 06:05:36;;;;;;;;;;;14.40;76.90;;;;;;5095314;28;19924;-71
2023/10/29 06:08:03;;;;;;;;;;;14.40;76.90;;;;;;5112787;28;19920;-71
2023/10/29 06:10:29;;;;;;;;;;;14.40;76.90;;;;;;5095188;28;20068;-71
2023/10/29 06:12:55;;;;;;;;;;;14.40;76.90;;;;;;5095264;28;20276;-71
2023/10/29 06:15:20;;;;;;;;;;;14.40;76.90;;;;;;5128823;27;19920;-71
2023/10/29 06:17:46;;;;;;;;;;;14.40;76.90;;;;;;5113200;28;20018;-71
2023/10/29 06:20:16;;;;;;;;;;;14.40;76.90;;;;;;5112967;28;19920;-71
2023/10/29 06:22:43;;;;;;;;;;;14.40;76.90;;;;;;5095161;28;20011;-71
2023/10/29 06:25:08;;;;;;;;;;;14.40;76.90;;;;;;5095045;28;20100;-71
2023/10/29 06:27:34;;;;;;;;;;;14.40;76.90;;;;;;5113015;28;20191;-71
2023/10/29 06:29:59;;;;;;;;;;;14.50;77.70;;;;;;5094602;28;20398;-72
2023/10/29 06:32:25;;;;;;;;;;;14.40;76.90;;;;;;5095026;28;19919;-72
2023/10/29 06:34:51;;;;;;;;;;;14.40;76.80;;;;;;5094647;28;19926;-72
2023/10/29 06:37:16;;;;;;;;;;;14.40;76.80;;;;;;5094329;28;20091;-71
2023/10/29 06:39:42;;;;;;;;;;;14.40;76.80;;;;;;5094851;28;19920;-72
2023/10/29 06:42:07;;;;;;;;;;;14.50;76.80;;;;;;5112747;28;19923;-71
2023/10/29 06:44:33;;;;;;;;;;;14.40;76.80;;;;;;5094913;28;19931;-71
2023/10/29 06:46:58;;;;;;;;;;;14.40;76.80;;;;;;5112647;28;20010;-72
2023/10/29 06:49:24;;;;;;;;;;;14.40;77.60;;;;;;5094526;28;19920;-72
2023/10/29 06:51:49;;;;;;;;;;;14.40;76.80;;;;;;5094725;28;20006;-71
2023/10/29 06:54:15;;;;;;;;;;;14.40;76.80;;;;;;5094440;28;19920;-71
2023/10/29 06:56:40;;;;;;;;;;;14.50;76.80;;;;;;5094699;28;19920;-72
2023/10/29 06:59:06;;;;;;;;;;;14.40;76.80;;;;;;5094340;28;19924;-71
2023/10/29 07:01:31;;;;;;;;;;;14.40;76.80;;;;;;5094273;28;20331;-71
2023/10/29 07:03:57;;;;;;;;;;;14.40;76.80;;;;;;5094678;28;19923;-72
2023/10/29 07:06:22;;;;;;;;;;;14.40;76.90;;;;;;5077380;28;20389;-72
2023/10/29 07:08:48;;;;;;;;;;;14.40;76.70;;;;;;5094263;28;19954;-72
2023/10/29 07:11:13;;;;;;;;;;;14.40;76.70;;;;;;5112675;28;19971;-71
2023/10/29 07:13:39;;;;;;;;;;;14.50;76.80;;;;;;5112482;28;19919;-71
2023/10/29 07:16:05;;;;;;;;;;;14.50;76.80;;;;;;5112427;28;19920;-72
2023/10/29 07:18:30;;;;;;;;;;;14.50;76.80;;;;;;5093939;28;19928;-71
2023/10/29 07:20:56;;;;;;;;;;;14.50;76.80;;;;;;5097456;28;19927;-73
2023/10/29 07:23:22;;;;;;;;;;;14.50;76.80;;;;;;5132677;27;19919;-72
2023/10/29 07:25:48;;;;;;;;;;;14.50;76.80;;;;;;5116365;28;19923;-71
2023/10/29 07:28:14;;;;;;;;;;;14.50;76.80;;;;;;5116321;28;20007;-72
2023/10/29 07:30:39;;;;;;;;;;;14.50;76.80;;;;;;5116238;28;19927;-72
2023/10/29 07:33:05;;;;;;;;;;;14.50;76.70;;;;;;5131973;27;19973;-72
2023/10/29 07:35:31;;;;;;;;;;;14.50;76.80;;;;;;5098221;28;19923;-72
2023/10/29 07:37:56;;;;;;;;;;;14.50;76.70;;;;;;5097486;28;19924;-72
2023/10/29 07:40:22;;;;;;;;;;;14.50;76.70;;;;;;5116077;28;19942;-72
2023/10/29 07:42:47;;;;;;;;;;;14.50;76.70;;;;;;5097696;28;19924;-72
2023/10/29 07:45:13;;;;;;;;;;;14.50;76.70;;;;;;5097986;28;19919;-72
2023/10/29 07:47:39;;;;;;;;;;;14.50;76.70;;;;;;5131732;27;20401;-72
2023/10/29 07:50:06;;;;;;;;;;;14.50;76.60;;;;;;5097626;28;19931;-72
2023/10/29 07:52:36;;;;;;;;;;;14.50;76.60;;;;;;5097604;28;19945;-71
2023/10/29 07:55:02;;;;;;;;;;;14.50;76.60;;;;;;5115834;28;19920;-72
2023/10/29 07:57:27;;;;;;;;;;;14.50;76.60;;;;;;5115784;28;20321;-72
2023/10/29 07:59:53;;;;;;;;;;;14.50;76.60;;;;;;5115675;28;19920;-72
2023/10/29 08:02:19;;;;;;;;;;;14.50;76.50;;;;;;5097607;28;19920;-71
2023/10/29 08:04:44;;;;;;;;;;;14.50;76.50;;;;;;5131747;27;19926;-72
2023/10/29 08:07:10;;;;;;;;;;;14.50;76.50;;;;;;5097559;28;19919;-72
2023/10/29 08:09:35;;;;;;;;;;;14.50;76.50;;;;;;5131521;27;19919;-72
2023/10/29 08:12:01;;;;;;;;;;;14.50;76.40;;;;;;5097501;28;20379;-72
2023/10/29 08:14:26;;;;;;;;;;;14.50;76.40;;;;;;5115414;28;19920;-72
2023/10/29 08:16:52;;;;;;;;;;;14.50;76.40;;;;;;5115295;28;19920;-72
2023/10/29 08:19:17;;;;;;;;;;;14.50;76.40;;;;;;5115077;28;19928;-73
2023/10/29 08:21:43;;;;;;;;;;;14.50;76.40;;;;;;5115468;28;19920;-72
2023/10/29 08:24:08;;;;;;;;;;;14.50;76.40;;;;;;5115313;28;20006;-72
2023/10/29 08:26:34;;;;;;;;;;;14.50;76.40;;;;;;5115234;28;19920;-73
2023/10/29 08:28:59;;;;;;;;;;;14.50;76.40;;;;;;5115109;28;20397;-72
2023/10/29 08:31:25;;;;;;;;;;;14.50;76.30;;;;;;5096421;28;19946;-72
2023/10/29 08:33:50;;;;;;;;;;;14.50;76.30;;;;;;5114983;28;19919;-72
2023/10/29 08:36:16;;;;;;;;;;;14.50;76.30;;;;;;5096652;28;19923;-73
2023/10/29 08:38:42;;;;;;;;;;;14.60;76.30;;;;;;5096311;28;20332;-71
2023/10/29 08:41:15;;;;;;;;;;;14.60;76.30;;;;;;5114604;28;19928;-71
2023/10/29 08:43:41;;;;;;;;;;;14.50;76.20;;;;;;5096917;28;19920;-72
2023/10/29 08:46:07;;;;;;;;;;;14.60;76.30;;;;;;5096640;28;20382;-71
2023/10/29 08:48:32;;;;;;;;;;;14.50;76.20;;;;;;5096537;28;20103;-72
2023/10/29 08:50:58;;;;;;;;;;;14.60;76.30;;;;;;5096320;28;20286;-72
2023/10/29 08:53:24;;;;;;;;;;;14.60;76.30;;;;;;5096583;28;20010;-71
2023/10/29 08:55:51;;;;;;;;;;;14.60;76.30;;;;;;5096590;28;20366;-71
2023/10/29 08:58:17;;;;;;;;;;;14.60;76.20;;;;;;5114500;28;20318;-72
2023/10/29 09:00:43;;;;;;;;;;;14.60;76.20;;;;;;5114535;28;19920;-72
2023/10/29 09:03:08;;;;;;;;;;;14.60;76.20;;;;;;5096052;28;19920;-71
2023/10/29 09:05:34;;;;;;;;;;;14.60;76.20;;;;;;5114168;28;19920;-71
2023/10/29 09:07:59;;;;;;;;;;;14.60;76.20;;;;;;5114506;28;19923;-71
2023/10/29 09:10:25;;;;;;;;;;;14.60;76.20;;;;;;5096325;28;19920;-72
2023/10/29 09:12:52;;;;;;;;;;;14.70;76.20;;;;;;5114262;28;19927;-72
2023/10/29 09:15:18;;;;;;;;;;;14.60;76.20;;;;;;5095821;28;20161;-71
2023/10/29 09:17:43;;;;;;;;;;;14.60;76.10;;;;;;5095867;28;19969;-71
2023/10/29 09:20:09;;;;;;;;;;;14.60;76.10;;;;;;5129842;27;19920;-72
2023/10/29 09:22:34;;;;;;;;;;;14.60;76.10;;;;;;5129896;27;19920;-72
2023/10/29 09:25:00;;;;;;;;;;;14.60;76.10;;;;;;5129883;27;19988;-71
2023/10/29 09:27:25;;;;;;;;;;;14.60;76.10;;;;;;5129779;27;20027;-71
2023/10/29 09:29:51;;;;;;;;;;;14.60;76.20;;;;;;5096084;28;19919;-71
2023/10/29 09:32:16;;;;;;;;;;;14.60;76.10;;;;;;5095630;28;19920;-72
2023/10/29 09:34:42;;;;;;;;;;;14.60;76.80;;;;;;5095799;28;19920;-72
2023/10/29 09:37:08;;;;;;;;;;;14.60;76.10;;;;;;5129456;27;19927;-72
2023/10/29 09:39:33;;;;;;;;;;;14.60;76.10;;;;;;5130168;27;20015;-72
2023/10/29 09:42:01;;;;;;;;;;;14.60;76.10;;;;;;5094784;28;19926;-70
2023/10/29 09:44:29;;;;;;;;;;;14.60;76.10;;;;;;5113546;28;20298;-71
2023/10/29 09:46:58;;;;;;;;;;;14.60;76.00;;;;;;5113536;28;20370;-71
2023/10/29 09:49:23;;;;;;;;;;;14.70;76.10;;;;;;5095573;28;20385;-71
2023/10/29 09:51:49;;;;;;;;;;;14.60;76.00;;;;;;5095465;28;20002;-71
2023/10/29 09:54:14;;;;;;;;;;;14.60;76.00;;;;;;5113474;28;19920;-72
2023/10/29 09:56:40;;;;;;;;;;;14.70;76.00;;;;;;5113483;28;19969;-71
2023/10/29 09:59:07;;;;;;;;;;;14.60;76.00;;;;;;5129256;27;19920;-71
2023/10/29 10:01:33;;;;;;;;;;;14.70;76.00;;;;;;5095302;28;19931;-71
2023/10/29 10:03:58;;;;;;;;;;;14.70;76.00;;;;;;5095258;28;20014;-71
2023/10/29 10:06:25;;;;;;;;;;;14.60;75.90;;;;;;5095265;28;19919;-71
2023/10/29 10:08:58;;;;;;;;;;;14.70;76.00;;;;;;5094816;28;19972;-71
2023/10/29 10:11:24;;;;;;;;;;;14.70;76.00;;;;;;5095210;28;20019;-72
2023/10/29 10:13:49;;;;;;;;;;;14.70;76.70;;;;;;5095002;28;19926;-71
2023/10/29 10:16:15;;;;;;;;;;;14.70;75.90;;;;;;5113078;28;20006;-71
2023/10/29 10:18:57;;;;;;;;;;;14.70;75.90;;;;;;5112873;28;19935;-72
2023/10/29 10:21:23;;;;;;;;;;;14.70;75.90;;;;;;5095076;28;20433;-71
2023/10/29 10:23:51;;;;;;;;;;;14.70;75.90;;;;;;5095057;28;19926;-72
2023/10/29 10:26:25;;;;;;;;;;;14.70;75.90;;;;;;5094751;28;19938;-71
2023/10/29 10:28:53;;;;;;;;;;;14.70;75.80;;;;;;5094982;28;19974;-71
2023/10/29 10:31:18;;;;;;;;;;;14.70;75.90;;;;;;5094662;28;19967;-72
2023/10/29 10:33:44;;;;;;;;;;;14.70;75.80;;;;;;5094881;28;20001;-73
2023/10/29 10:36:10;;;;;;;;;;;14.70;75.80;;;;;;5113119;28;20402;-72
2023/10/29 10:38:50;;;;;;;;;;;14.70;75.80;;;;;;5094244;28;19923;-72
2023/10/29 10:41:15;;;;;;;;;;;14.70;75.80;;;;;;5094490;28;20006;-72
2023/10/29 10:43:42;;;;;;;;;;;14.70;75.80;;;;;;5094486;28;19998;-72
2023/10/29 10:46:07;;;;;;;;;;;14.70;75.80;;;;;;5094856;28;20450;-71
2023/10/29 10:48:34;;;;;;;;;;;14.70;75.80;;;;;;5094726;28;20002;-72
2023/10/29 10:51:01;;;;;;;;;;;14.70;75.80;;;;;;5094857;28;20351;-71
2023/10/29 10:53:27;;;;;;;;;;;14.70;75.80;;;;;;5094910;28;19959;-71
2023/10/29 10:55:53;;;;;;;;;;;14.70;75.70;;;;;;5098628;28;20398;-72
2023/10/29 10:58:19;;;;;;;;;;;14.70;75.70;;;;;;5116957;28;19981;-72
2023/10/29 11:00:48;;;;;;;;;;;14.70;75.70;;;;;;5098527;28;20422;-72
2023/10/29 11:03:15;;;;;;;;;;;14.70;75.70;;;;;;5116793;28;20302;-72
2023/10/29 11:05:41;;;;;;;;;;;14.70;75.70;;;;;;5116819;28;19968;-72
2023/10/29 11:08:07;;;;;;;;;;;14.70;75.70;;;;;;5098098;28;19920;-72
2023/10/29 11:10:33;;;;;;;;;;;14.70;75.70;;;;;;5098093;28;19926;-72
2023/10/29 11:13:19;;;;;;;;;;;14.70;75.70;;;;;;5098373;28;19942;-72
2023/10/29 11:15:46;;;;;;;;;;;14.70;75.70;;;;;;5116352;28;20014;-71
2023/10/29 11:18:12;;;;;;;;;;;14.70;75.70;;;;;;5116340;28;20020;-72
2023/10/29 11:23:23;;;;;;;;;;;14.70;75.70;;;;;;5130838;27;19911;-72
2023/10/29 11:25:49;;;;;;;;;;;14.80;75.60;;;;;;5164038;27;19969;-71
2023/10/29 11:28:34;;;;;;;;;;;14.70;75.60;;;;;;5129594;28;19920;-72
2023/10/29 11:31:20;;;;;;;;;;;14.70;75.60;;;;;;5129159;28;20363;-72
2023/10/29 11:33:46;;;;;;;;;;;14.80;75.60;;;;;;5129204;28;20392;-73
2023/10/29 11:36:32;;;;;;;;;;;14.70;75.50;;;;;;5129542;28;19965;-72
2023/10/29 11:39:18;;;;;;;;;;;14.70;75.60;;;;;;5129024;28;19926;-72
2023/10/29 11:41:45;;;;;;;;;;;14.70;75.50;;;;;;5129105;28;19924;-72
2023/10/29 11:44:23;;;;;;;;;;;14.70;75.50;;;;;;5129108;28;19966;-72
2023/10/29 11:52:39;;;;;;;;;;;14.70;75.50;;;;;;5110301;27;19912;-72
2023/10/29 11:55:05;;;;;;;;;;;14.70;75.40;;;;;;5108952;28;19920;-71
2023/10/29 11:57:31;;;;;;;;;;;14.80;75.60;;;;;;5108799;28;19930;-71
2023/10/29 11:59:58;;;;;;;;;;;14.80;75.50;;;;;;5108952;28;19920;-71
2023/10/29 12:02:24;;;;;;;;;;;14.80;75.50;;;;;;5108800;28;19946;-72
2023/10/29 12:04:50;;;;;;;;;;;14.80;75.50;;;;;;5108785;28;19920;-72
2023/10/29 12:07:24;;;;;;;;;;;14.80;75.50;;;;;;5108672;28;19930;-72
2023/10/29 12:09:59;;;;;;;;;;;14.80;75.50;;;;;;5108732;28;19920;-71
2023/10/29 12:12:24;;;;;;;;;;;14.80;75.40;;;;;;5109811;28;19928;-72
2023/10/29 12:14:50;;;;;;;;;;;14.80;75.40;;;;;;5108662;28;19972;-71
2023/10/29 12:17:15;;;;;;;;;;;14.80;75.50;;;;;;5109637;28;20286;-73
2023/10/29 12:19:42;;;;;;;;;;;14.80;75.40;;;;;;5108512;28;19927;-72
2023/10/29 12:22:24;;;;;;;;;;;14.80;75.40;;;;;;5108394;28;19920;-72
2023/10/29 12:25:00;;;;;;;;;;;14.80;75.40;;;;;;5109635;28;19920;-72
2023/10/29 12:27:26;;;;;;;;;;;14.80;75.40;;;;;;5108552;28;19939;-72
2023/10/29 12:29:52;;;;;;;;;;;14.80;75.30;;;;;;5108645;28;19924;-72
2023/10/29 12:32:18;;;;;;;;;;;14.80;75.30;;;;;;5108101;28;19924;-73
2023/10/29 12:37:28;;;;;;;;;;;14.80;75.30;;;;;;5105437;27;19918;-72
2023/10/29 12:39:56;;;;;;;;;;;14.80;75.30;;;;;;5088559;28;19924;-71
2023/10/29 12:42:41;;;;;;;;;;;14.80;75.30;;;;;;5088430;28;19955;-72
2023/10/29 12:45:08;;;;;;;;;;;14.80;75.30;;;;;;5089653;28;20359;-71
2023/10/29 12:47:34;;;;;;;;;;;14.80;75.30;;;;;;5088394;28;19971;-71
2023/10/29 12:50:01;;;;;;;;;;;14.80;75.20;;;;;;5088672;28;19928;-71
2023/10/29 12:52:27;;;;;;;;;;;14.80;75.20;;;;;;5088383;28;19924;-73
2023/10/29 12:54:53;;;;;;;;;;;14.80;75.20;;;;;;5088208;28;19920;-71
2023/10/29 12:57:18;;;;;;;;;;;14.80;75.20;;;;;;5088178;28;19981;-71
2023/10/29 12:59:45;;;;;;;;;;;14.80;75.20;;;;;;5088189;28;20347;-72
2023/10/29 13:02:20;;;;;;;;;;;14.80;75.10;;;;;;5088500;28;19927;-71
2023/10/29 13:04:46;;;;;;;;;;;14.80;75.10;;;;;;5088030;28;20387;-71
2023/10/29 13:07:13;;;;;;;;;;;14.80;75.10;;;;;;5088348;28;20038;-73
2023/10/29 13:09:40;;;;;;;;;;;14.80;75.10;;;;;;5088063;28;19920;-72
2023/10/29 13:12:08;;;;;;;;;;;14.80;75.10;;;;;;5088290;28;19920;-71
2023/10/29 13:14:35;;;;;;;;;;;14.80;75.10;;;;;;5087926;28;20448;-72
2023/10/29 13:17:01;;;;;;;;;;;14.80;75.10;;;;;;5087792;28;19932;-71
2023/10/29 13:19:27;;;;;;;;;;;14.80;75.10;;;;;;5087744;28;19929;-73
2023/10/29 13:21:52;;;;;;;;;;;14.80;75.10;;;;;;5089221;28;19928;-72
2023/10/29 13:24:19;;;;;;;;;;;14.80;75.10;;;;;;5088052;28;20421;-72
2023/10/29 13:26:45;;;;;;;;;;;14.80;75.10;;;;;;5087830;28;19920;-71
2023/10/29 13:29:11;;;;;;;;;;;14.80;75.10;;;;;;5088955;28;19932;-72
2023/10/29 13:31:37;;;;;;;;;;;14.80;75.10;;;;;;5087708;28;19926;-72
2023/10/29 13:34:02;;;;;;;;;;;14.80;75.00;;;;;;5087892;28;19920;-72
2023/10/29 13:36:28;;;;;;;;;;;14.80;75.00;;;;;;5087310;28;19959;-72
2023/10/29 13:38:54;;;;;;;;;;;14.80;75.00;;;;;;5087791;28;20387;-72
2023/10/29 13:41:20;;;;;;;;;;;14.90;75.10;;;;;;5087404;28;19962;-71
2023/10/29 13:43:45;;;;;;;;;;;14.80;75.00;;;;;;5087419;28;19924;-71
2023/10/29 13:46:12;;;;;;;;;;;14.80;75.00;;;;;;5087604;28;19920;-71
2023/10/29 13:48:38;;;;;;;;;;;14.80;75.00;;;;;;5074539;28;19974;-71
2023/10/29 13:51:04;;;;;;;;;;;14.80;75.00;;;;;;5074958;28;19925;-71
2023/10/29 13:53:30;;;;;;;;;;;14.80;75.00;;;;;;5074007;28;19970;-71
2023/10/29 13:56:11;;;;;;;;;;;14.80;75.00;;;;;;5075050;28;20353;-72
2023/10/29 13:58:38;;;;;;;;;;;14.80;75.00;;;;;;5075082;28;19946;-72
2023/10/29 14:01:03;;;;;;;;;;;14.80;75.00;;;;;;5073614;28;19920;-71
2023/10/29 14:03:29;;;;;;;;;;;14.80;75.00;;;;;;5073845;28;20187;-73
2023/10/29 14:05:55;;;;;;;;;;;14.80;75.00;;;;;;5073439;28;19931;-71
2023/10/29 14:08:21;;;;;;;;;;;14.80;75.00;;;;;;5073533;28;19943;-71
2023/10/29 14:10:48;;;;;;;;;;;14.80;75.00;;;;;;5073450;28;19920;-72
2023/10/29 14:13:13;;;;;;;;;;;14.90;75.00;;;;;;5073787;28;19936;-73
2023/10/29 14:15:39;;;;;;;;;;;14.90;75.00;;;;;;5073639;28;19924;-73
2023/10/29 14:18:05;;;;;;;;;;;14.80;75.00;;;;;;5074582;28;20312;-72
2023/10/29 14:20:30;;;;;;;;;;;14.90;75.00;;;;;;5073166;28;19924;-72
2023/10/29 14:22:56;;;;;;;;;;;14.80;75.00;;;;;;5074771;28;20015;-73